sensor_id;sensor_type;location;lat;lon;timestamp;temperature;humidity
9800;DHT22;4939;52.00085300;4.17406100;2024-03-02T00:00:22;6.50;99.90
9800;DHT22;4939;52.00085300;4.17406100;2024-03-02T00:02:49;6.50;99.90
9800;DHT22;4939;52.00085300;4.17406100;2024-03-02T00:05:17;6.40;99.90
9800;DHT22;4939;52.00085300;4.17406100;2024-03-02T00:07:45;6.40;99.90
9800;DHT22;4939;52.00085300;4.17406100;2024-03-02T00:10:14;6.10;99.90
9800;DHT22;4939;52.00085300;4.17406100;2024-03-02T00:12:42;6.30;99.90
9800;DHT22;4939;52.00085300;4.17406100;2024-03-02T00:23:03;6.20;99.90
9800;DHT22;4939;52.00085300;4.17406100;2024-03-02T00:25:43;6.30;99.90
9800;DHT22;4939;52.00085300;4.17406100;2024-03-02T00:28:22;6.30;99.90
9800;DHT22;4939;52.00085300;4.17406100;2024-03-02T00:31:08;6.20;99.90
9800;DHT22;4939;52.00085300;4.17406100;2024-03-02T00:33:45;6.20;99.90
9800;DHT22;4939;52.00085300;4.17406100;2024-03-02T00:36:13;6.20;99.90
9800;DHT22;4939;52.00085300;4.17406100;2024-03-02T00:38:46;6.20;99.90
9800;DHT22;4939;52.00085300;4.17406100;2024-03-02T00:41:19;6.20;99.90
9800;DHT22;4939;52.00085300;4.17406100;2024-03-02T00:46:12;6.20;99.90
9800;DHT22;4939;52.00085300;4.17406100;2024-03-02T00:48:41;6.20;99.90
9800;DHT22;4939;52.00085300;4.17406100;2024-03-02T00:56:04;6.20;99.90
9800;DHT22;4939;52.00085300;4.17406100;2024-03-02T00:58:34;6.20;99.90
9800;DHT22;4939;52.00085300;4.17406100;2024-03-02T01:27:48;6.10;99.90
9800;DHT22;4939;52.00085300;4.17406100;2024-03-02T01:30:14;6.00;99.90
9800;DHT22;4939;52.00085300;4.17406100;2024-03-02T01:35:06;6.10;99.90
9800;DHT22;4939;52.00085300;4.17406100;2024-03-02T02:33:40;5.90;99.90
9800;DHT22;4939;52.00085300;4.17406100;2024-03-02T02:38:38;5.90;99.90
9800;DHT22;4939;52.00085300;4.17406100;2024-03-02T02:58:12;5.90;99.90
9800;DHT22;4939;52.00085300;4.17406100;2024-03-02T03:22:38;6.10;99.90
9800;DHT22;4939;52.00085300;4.17406100;2024-03-02T03:44:33;6.40;99.90
9800;DHT22;4939;52.00085300;4.17406100;2024-03-02T05:00:07;6.30;99.90
9800;DHT22;4939;52.00085300;4.17406100;2024-03-02T05:25:07;6.40;99.90
9800;DHT22;4939;52.00085300;4.17406100;2024-03-02T05:34:52;6.50;99.90
9800;DHT22;4939;52.00085300;4.17406100;2024-03-02T06:01:42;4.30;99.90
9800;DHT22;4939;52.00085300;4.17406100;2024-03-02T06:04:09;6.40;99.90
9800;DHT22;4939;52.00085300;4.17406100;2024-03-02T06:09:01;6.30;99.90
9800;DHT22;4939;52.00085300;4.17406100;2024-03-02T07:27:17;6.10;99.90
9800;DHT22;4939;52.00085300;4.17406100;2024-03-02T07:34:36;6.20;99.90
9800;DHT22;4939;52.00085300;4.17406100;2024-03-02T07:54:08;6.40;99.90
9800;DHT22;4939;52.00085300;4.17406100;2024-03-02T07:56:34;6.50;99.90
9800;DHT22;4939;52.00085300;4.17406100;2024-03-02T08:01:35;6.60;99.90
9800;DHT22;4939;52.00085300;4.17406100;2024-03-02T08:04:02;6.60;99.90
9800;DHT22;4939;52.00085300;4.17406100;2024-03-02T08:08:56;6.70;99.90
9800;DHT22;4939;52.00085300;4.17406100;2024-03-02T08:16:15;6.90;99.90
9800;DHT22;4939;52.00085300;4.17406100;2024-03-02T08:18:42;6.90;99.90
9800;DHT22;4939;52.00085300;4.17406100;2024-03-02T08:23:34;7.00;99.90
9800;DHT22;4939;52.00085300;4.17406100;2024-03-02T08:38:12;7.40;99.90
9800;DHT22;4939;52.00085300;4.17406100;2024-03-02T09:12:19;8.30;99.90
9800;DHT22;4939;52.00085300;4.17406100;2024-03-02T09:14:45;8.30;99.90
9800;DHT22;4939;52.00085300;4.17406100;2024-03-02T09:17:12;8.30;99.90
9800;DHT22;4939;52.00085300;4.17406100;2024-03-02T09:19:39;8.30;99.90
9800;DHT22;4939;52.00085300;4.17406100;2024-03-02T09:24:32;8.40;99.90
9800;DHT22;4939;52.00085300;4.17406100;2024-03-02T09:34:17;8.60;99.90
9800;DHT22;4939;52.00085300;4.17406100;2024-03-02T09:39:10;8.20;99.90
9800;DHT22;4939;52.00085300;4.17406100;2024-03-02T09:41:38;8.80;99.90
9800;DHT22;4939;52.00085300;4.17406100;2024-03-02T09:44:05;8.90;99.90
9800;DHT22;4939;52.00085300;4.17406100;2024-03-02T09:51:24;9.20;99.90
9800;DHT22;4939;52.00085300;4.17406100;2024-03-02T09:53:50;9.40;99.90
9800;DHT22;4939;52.00085300;4.17406100;2024-03-02T09:58:44;8.40;99.90
9800;DHT22;4939;52.00085300;4.17406100;2024-03-02T10:03:37;9.40;99.90
9800;DHT22;4939;52.00085300;4.17406100;2024-03-02T10:06:22;9.50;99.90
9800;DHT22;4939;52.00085300;4.17406100;2024-03-02T10:08:48;9.70;99.90
9800;DHT22;4939;52.00085300;4.17406100;2024-03-02T10:11:34;9.80;99.90
9800;DHT22;4939;52.00085300;4.17406100;2024-03-02T10:14:12;9.70;99.90
9800;DHT22;4939;52.00085300;4.17406100;2024-03-02T10:16:40;9.60;99.90
9800;DHT22;4939;52.00085300;4.17406100;2024-03-02T10:19:23;9.60;99.90
9800;DHT22;4939;52.00085300;4.17406100;2024-03-02T10:21:51;9.60;99.90
9800;DHT22;4939;52.00085300;4.17406100;2024-03-02T10:26:44;9.80;99.90
9800;DHT22;4939;52.00085300;4.17406100;2024-03-02T10:29:11;9.90;99.90
9800;DHT22;4939;52.00085300;4.17406100;2024-03-02T10:31:37;10.00;99.90
9800;DHT22;4939;52.00085300;4.17406100;2024-03-02T10:36:29;5.70;99.90
9800;DHT22;4939;52.00085300;4.17406100;2024-03-02T10:38:58;10.30;99.90
9800;DHT22;4939;52.00085300;4.17406100;2024-03-02T10:41:26;10.20;99.90
9800;DHT22;4939;52.00085300;4.17406100;2024-03-02T10:43:56;10.40;99.90
9800;DHT22;4939;52.00085300;4.17406100;2024-03-02T10:46:37;10.40;99.90
9800;DHT22;4939;52.00085300;4.17406100;2024-03-02T10:49:05;10.50;99.90
9800;DHT22;4939;52.00085300;4.17406100;2024-03-02T10:51:32;10.50;99.90
9800;DHT22;4939;52.00085300;4.17406100;2024-03-02T10:54:00;10.50;99.90
9800;DHT22;4939;52.00085300;4.17406100;2024-03-02T10:59:06;10.50;99.90
9800;DHT22;4939;52.00085300;4.17406100;2024-03-02T11:01:38;10.60;99.90
9800;DHT22;4939;52.00085300;4.17406100;2024-03-02T11:04:06;10.60;99.90
9800;DHT22;4939;52.00085300;4.17406100;2024-03-02T11:06:35;10.80;99.90
9800;DHT22;4939;52.00085300;4.17406100;2024-03-02T11:09:06;10.70;99.90
9800;DHT22;4939;52.00085300;4.17406100;2024-03-02T11:11:37;10.80;99.90
9800;DHT22;4939;52.00085300;4.17406100;2024-03-02T11:14:07;10.90;99.90
9800;DHT22;4939;52.00085300;4.17406100;2024-03-02T11:16:37;10.90;99.90
9800;DHT22;4939;52.00085300;4.17406100;2024-03-02T11:19:10;11.10;99.90
9800;DHT22;4939;52.00085300;4.17406100;2024-03-02T11:21:38;11.10;99.90
9800;DHT22;4939;52.00085300;4.17406100;2024-03-02T11:32:05;10.80;99.90
9800;DHT22;4939;52.00085300;4.17406100;2024-03-02T11:34:35;10.80;99.90
9800;DHT22;4939;52.00085300;4.17406100;2024-03-02T11:37:02;10.70;99.90
9800;DHT22;4939;52.00085300;4.17406100;2024-03-02T11:39:31;10.60;99.90
9800;DHT22;4939;52.00085300;4.17406100;2024-03-02T11:41:58;10.60;99.90
9800;DHT22;4939;52.00085300;4.17406100;2024-03-02T11:44:27;10.50;99.90
9800;DHT22;4939;52.00085300;4.17406100;2024-03-02T11:47:05;10.50;99.90
9800;DHT22;4939;52.00085300;4.17406100;2024-03-02T11:49:51;10.60;99.90
9800;DHT22;4939;52.00085300;4.17406100;2024-03-02T11:54:46;10.60;99.90
9800;DHT22;4939;52.00085300;4.17406100;2024-03-02T11:57:20;10.70;99.90
9800;DHT22;4939;52.00085300;4.17406100;2024-03-02T11:59:48;10.70;99.90
9800;DHT22;4939;52.00085300;4.17406100;2024-03-02T12:02:20;10.70;99.90
9800;DHT22;4939;52.00085300;4.17406100;2024-03-02T12:04:47;10.70;99.90
9800;DHT22;4939;52.00085300;4.17406100;2024-03-02T12:07:22;10.70;99.90
9800;DHT22;4939;52.00085300;4.17406100;2024-03-02T12:14:52;10.90;99.90
9800;DHT22;4939;52.00085300;4.17406100;2024-03-02T12:27:05;10.90;99.90
9800;DHT22;4939;52.00085300;4.17406100;2024-03-02T12:29:32;11.00;99.90
9800;DHT22;4939;52.00085300;4.17406100;2024-03-02T12:34:27;11.20;99.90
9800;DHT22;4939;52.00085300;4.17406100;2024-03-02T12:39:20;11.30;99.90
9800;DHT22;4939;52.00085300;4.17406100;2024-03-02T12:41:49;11.30;99.90
9800;DHT22;4939;52.00085300;4.17406100;2024-03-02T12:46:46;8.40;99.90
9800;DHT22;4939;52.00085300;4.17406100;2024-03-02T12:49:14;10.10;99.90
9800;DHT22;4939;52.00085300;4.17406100;2024-03-02T12:51:42;11.40;99.90
9800;DHT22;4939;52.00085300;4.17406100;2024-03-02T12:54:08;11.30;99.90
9800;DHT22;4939;52.00085300;4.17406100;2024-03-02T12:56:35;11.50;99.90
9800;DHT22;4939;52.00085300;4.17406100;2024-03-02T13:11:13;11.90;99.90
9800;DHT22;4939;52.00085300;4.17406100;2024-03-02T13:13:40;10.70;99.90
9800;DHT22;4939;52.00085300;4.17406100;2024-03-02T13:16:14;11.70;99.90
9800;DHT22;4939;52.00085300;4.17406100;2024-03-02T13:21:08;11.70;99.90
9800;DHT22;4939;52.00085300;4.17406100;2024-03-02T13:26:01;11.70;99.90
9800;DHT22;4939;52.00085300;4.17406100;2024-03-02T13:30:58;11.80;99.90
9800;DHT22;4939;52.00085300;4.17406100;2024-03-02T13:38:19;11.70;99.90
9800;DHT22;4939;52.00085300;4.17406100;2024-03-02T13:43:12;11.70;99.90
9800;DHT22;4939;52.00085300;4.17406100;2024-03-02T13:45:38;11.60;99.90
9800;DHT22;4939;52.00085300;4.17406100;2024-03-02T14:00:19;11.40;99.90
9800;DHT22;4939;52.00085300;4.17406100;2024-03-02T14:02:48;11.40;99.90
9800;DHT22;4939;52.00085300;4.17406100;2024-03-02T14:07:41;11.50;99.90
9800;DHT22;4939;52.00085300;4.17406100;2024-03-02T14:17:29;11.60;99.90
9800;DHT22;4939;52.00085300;4.17406100;2024-03-02T14:22:27;11.50;99.90
9800;DHT22;4939;52.00085300;4.17406100;2024-03-02T14:29:49;11.30;99.90
9800;DHT22;4939;52.00085300;4.17406100;2024-03-02T14:42:00;11.40;99.90
9800;DHT22;4939;52.00085300;4.17406100;2024-03-02T14:54:13;14.60;99.90
9800;DHT22;4939;52.00085300;4.17406100;2024-03-02T14:56:45;11.40;99.90
9800;DHT22;4939;52.00085300;4.17406100;2024-03-02T14:59:12;10.20;99.90
9800;DHT22;4939;52.00085300;4.17406100;2024-03-02T15:26:03;11.70;99.90
9800;DHT22;4939;52.00085300;4.17406100;2024-03-02T16:15:03;11.70;99.90
9800;DHT22;4939;52.00085300;4.17406100;2024-03-02T16:29:43;11.70;99.90
9800;DHT22;4939;52.00085300;4.17406100;2024-03-02T16:56:43;11.60;99.90
9800;DHT22;4939;52.00085300;4.17406100;2024-03-02T16:59:10;11.60;99.90
9800;DHT22;4939;52.00085300;4.17406100;2024-03-02T17:04:02;11.40;99.90
9800;DHT22;4939;52.00085300;4.17406100;2024-03-02T17:11:22;11.40;99.90
9800;DHT22;4939;52.00085300;4.17406100;2024-03-02T17:50:28;10.70;99.90
9800;DHT22;4939;52.00085300;4.17406100;2024-03-02T17:55:21;10.60;99.90
9800;DHT22;4939;52.00085300;4.17406100;2024-03-02T18:00:17;10.60;99.90
9800;DHT22;4939;52.00085300;4.17406100;2024-03-02T18:02:43;10.60;99.90
9800;DHT22;4939;52.00085300;4.17406100;2024-03-02T18:10:05;10.60;99.90
9800;DHT22;4939;52.00085300;4.17406100;2024-03-02T18:12:31;10.60;99.90
9800;DHT22;4939;52.00085300;4.17406100;2024-03-02T18:19:50;10.50;99.90
9800;DHT22;4939;52.00085300;4.17406100;2024-03-02T18:22:17;10.50;99.90
9800;DHT22;4939;52.00085300;4.17406100;2024-03-02T18:32:05;10.50;99.90
9800;DHT22;4939;52.00085300;4.17406100;2024-03-02T19:06:15;11.20;99.90
9800;DHT22;4939;52.00085300;4.17406100;2024-03-02T19:11:17;11.20;99.90
9800;DHT22;4939;52.00085300;4.17406100;2024-03-02T19:13:43;11.20;99.90
9800;DHT22;4939;52.00085300;4.17406100;2024-03-02T19:16:11;11.30;99.90
9800;DHT22;4939;52.00085300;4.17406100;2024-03-02T19:18:38;11.20;99.90
9800;DHT22;4939;52.00085300;4.17406100;2024-03-02T19:43:02;11.20;99.90
9800;DHT22;4939;52.00085300;4.17406100;2024-03-02T19:52:46;11.20;99.90
9800;DHT22;4939;52.00085300;4.17406100;2024-03-02T19:57:39;11.10;99.90
9800;DHT22;4939;52.00085300;4.17406100;2024-03-02T20:00:15;11.10;99.90
9800;DHT22;4939;52.00085300;4.17406100;2024-03-02T20:05:08;11.10;99.90
9800;DHT22;4939;52.00085300;4.17406100;2024-03-02T20:07:34;11.10;99.90
9800;DHT22;4939;52.00085300;4.17406100;2024-03-02T20:10:07;11.10;99.90
9800;DHT22;4939;52.00085300;4.17406100;2024-03-02T20:15:03;11.00;99.90
9800;DHT22;4939;52.00085300;4.17406100;2024-03-02T20:51:45;11.20;99.90
9800;DHT22;4939;52.00085300;4.17406100;2024-03-02T20:54:11;11.30;99.90
9800;DHT22;4939;52.00085300;4.17406100;2024-03-02T20:59:10;11.20;99.90
9800;DHT22;4939;52.00085300;4.17406100;2024-03-02T21:01:36;11.20;99.90
9800;DHT22;4939;52.00085300;4.17406100;2024-03-02T21:13:50;11.10;99.90
9800;DHT22;4939;52.00085300;4.17406100;2024-03-02T21:16:16;11.20;99.90
9800;DHT22;4939;52.00085300;4.17406100;2024-03-02T21:33:26;11.40;99.90
9800;DHT22;4939;52.00085300;4.17406100;2024-03-02T22:02:44;11.40;99.90
9800;DHT22;4939;52.00085300;4.17406100;2024-03-02T22:10:02;11.30;99.90
9800;DHT22;4939;52.00085300;4.17406100;2024-03-02T22:39:14;11.00;99.90
9800;DHT22;4939;52.00085300;4.17406100;2024-03-02T22:51:26;10.60;99.90
9800;DHT22;4939;52.00085300;4.17406100;2024-03-02T22:56:19;10.50;99.90
9800;DHT22;4939;52.00085300;4.17406100;2024-03-02T23:03:39;10.40;99.90
9800;DHT22;4939;52.00085300;4.17406100;2024-03-02T23:06:06;10.10;99.90
9800;DHT22;4939;52.00085300;4.17406100;2024-03-02T23:10:58;9.70;99.90
9800;DHT22;4939;52.00085300;4.17406100;2024-03-02T23:15:53;9.40;99.90
9800;DHT22;4939;52.00085300;4.17406100;2024-03-02T23:20:45;9.20;99.90
9800;DHT22;4939;52.00085300;4.17406100;2024-03-02T23:28:03;9.10;99.90
9800;DHT22;4939;52.00085300;4.17406100;2024-03-02T23:37:49;8.90;99.90
9800;DHT22;4939;52.00085300;4.17406100;2024-03-02T23:45:07;8.80;99.90
9800;DHT22;4939;52.00085300;4.17406100;2024-03-02T23:52:27;8.70;99.90
